Time;durP1;ratioP1;P1;durP2;ratioP2;P2;SDS_P1;SDS_P2;PMS_P1;PMS_P2;Temp;Humidity;BMP_temperature;BMP_pressure;BME280_temperature;BME280_humidity;BME280_pressure;Samples;Min_cycle;Max_cycle;Signal;HPM_P1;HPM_P2
2024/01/27 00:01:51;;;;;;;0.90;0.90;;;;;;;;;;4998400;28;20328;-84
2024/01/27 00:04:17;;;;;;;0.80;0.80;;;;;;;;;;5000999;28;20381;-85
2024/01/27 00:06:43;;;;;;;0.97;0.97;;;;;;;;;;4999513;28;20256;-85
2024/01/27 00:09:09;;;;;;;1.00;1.00;;;;;;;;;;5004576;28;20295;-84
2024/01/27 00:11:35;;;;;;;0.80;0.80;;;;;;;;;;5006766;28;20716;-84
2024/01/27 00:14:02;;;;;;;1.00;1.00;;;;;;;;;;5021988;28;20295;-84
2024/01/27 00:16:28;;;;;;;1.00;1.00;;;;;;;;;;5017059;28;20211;-83
2024/01/27 00:18:54;;;;;;;0.90;0.90;;;;;;;;;;5017991;28;20637;-83
2024/01/27 00:21:20;;;;;;;0.90;0.90;;;;;;;;;;5019453;28;20183;-83
2024/01/27 00:23:46;;;;;;;1.00;1.00;;;;;;;;;;5015601;28;20172;-82
2024/01/27 00:26:12;;;;;;;0.97;0.97;;;;;;;;;;4996758;28;20212;-83
2024/01/27 00:28:38;;;;;;;0.90;0.90;;;;;;;;;;4993125;28;20705;-83
2024/01/27 00:31:04;;;;;;;0.90;0.90;;;;;;;;;;4992677;28;20180;-83
2024/01/27 00:33:29;;;;;;;0.90;0.90;;;;;;;;;;4995201;28;20198;-84
2024/01/27 00:35:55;;;;;;;0.90;0.90;;;;;;;;;;5027483;28;20187;-82
2024/01/27 00:38:22;;;;;;;1.00;1.00;;;;;;;;;;5036560;28;20199;-81
2024/01/27 00:40:48;;;;;;;0.80;0.80;;;;;;;;;;5021700;28;20244;-82
2024/01/27 00:43:14;;;;;;;0.80;0.80;;;;;;;;;;5016819;28;20169;-82
2024/01/27 00:45:39;;;;;;;0.87;0.87;;;;;;;;;;5017421;28;20174;-81
2024/01/27 00:48:06;;;;;;;0.90;0.90;;;;;;;;;;5017851;28;20193;-81
2024/01/27 00:50:32;;;;;;;0.83;0.83;;;;;;;;;;5008762;28;20181;-85
2024/01/27 00:52:57;;;;;;;0.90;0.90;;;;;;;;;;5000106;28;20314;-84
2024/01/27 00:55:23;;;;;;;0.80;0.80;;;;;;;;;;5000684;28;20180;-84
2024/01/27 00:57:49;;;;;;;1.00;1.00;;;;;;;;;;5001372;28;20193;-85
2024/01/27 01:00:15;;;;;;;0.80;0.80;;;;;;;;;;5001746;28;20200;-84
2024/01/27 01:02:41;;;;;;;0.90;0.90;;;;;;;;;;5012808;28;20229;-85
2024/01/27 01:05:07;;;;;;;0.90;0.90;;;;;;;;;;5022018;28;20215;-84
2024/01/27 01:07:33;;;;;;;0.77;0.77;;;;;;;;;;5019909;28;20207;-84
2024/01/27 01:09:59;;;;;;;0.90;0.90;;;;;;;;;;5020513;28;20264;-84
2024/01/27 01:12:26;;;;;;;0.80;0.80;;;;;;;;;;5014190;28;20204;-84
2024/01/27 01:14:52;;;;;;;0.80;0.80;;;;;;;;;;5013876;28;20199;-84
2024/01/27 01:17:18;;;;;;;0.90;0.90;;;;;;;;;;4999029;28;20263;-85
2024/01/27 01:19:44;;;;;;;0.80;0.80;;;;;;;;;;4994305;28;20272;-85
2024/01/27 01:22:10;;;;;;;0.87;0.87;;;;;;;;;;4994054;28;20177;-83
2024/01/27 01:24:36;;;;;;;0.90;0.90;;;;;;;;;;4993614;28;20251;-83
2024/01/27 01:27:03;;;;;;;0.83;0.83;;;;;;;;;;4993080;28;20201;-84
2024/01/27 01:29:29;;;;;;;0.90;0.90;;;;;;;;;;4993382;28;20185;-83
2024/01/27 01:31:55;;;;;;;0.90;0.90;;;;;;;;;;4997447;28;20181;-84
2024/01/27 01:34:21;;;;;;;0.90;0.90;;;;;;;;;;4998421;28;20562;-83
2024/01/27 01:36:48;;;;;;;0.90;0.90;;;;;;;;;;4998404;28;20220;-83
2024/01/27 01:39:14;;;;;;;0.80;0.80;;;;;;;;;;4997080;28;20236;-84
2024/01/27 01:41:40;;;;;;;0.90;0.90;;;;;;;;;;4996708;28;20639;-85
2024/01/27 01:44:06;;;;;;;0.80;0.80;;;;;;;;;;4997150;28;20177;-85
2024/01/27 01:46:34;;;;;;;0.90;0.90;;;;;;;;;;4996544;28;20212;-85
2024/01/27 01:49:00;;;;;;;0.90;0.90;;;;;;;;;;5005868;28;20173;-84
2024/01/27 01:51:27;;;;;;;0.80;0.80;;;;;;;;;;5015773;28;20260;-85
2024/01/27 01:53:55;;;;;;;0.77;0.77;;;;;;;;;;5014578;28;20708;-84
2024/01/27 01:56:21;;;;;;;0.80;0.80;;;;;;;;;;5033124;28;20188;-83
2024/01/27 01:58:47;;;;;;;0.97;0.97;;;;;;;;;;5015485;28;20177;-85
2024/01/27 02:01:13;;;;;;;0.90;0.90;;;;;;;;;;5004009;28;20184;-84
2024/01/27 02:03:39;;;;;;;0.90;0.90;;;;;;;;;;5004080;28;20184;-84
2024/01/27 02:06:05;;;;;;;0.80;0.80;;;;;;;;;;5003147;28;20181;-84
2024/01/27 02:08:31;;;;;;;0.90;0.90;;;;;;;;;;5020278;28;20180;-85
2024/01/27 02:10:58;;;;;;;0.80;0.80;;;;;;;;;;5019694;28;20660;-85
2024/01/27 02:13:24;;;;;;;0.90;0.90;;;;;;;;;;5012530;28;20276;-84
2024/01/27 02:15:51;;;;;;;0.80;0.80;;;;;;;;;;5003381;28;20173;-85
2024/01/27 02:18:17;;;;;;;0.90;0.90;;;;;;;;;;5003765;28;20204;-85
2024/01/27 02:20:43;;;;;;;0.80;0.80;;;;;;;;;;5021814;28;20172;-83
2024/01/27 02:23:09;;;;;;;0.80;0.80;;;;;;;;;;5033592;28;20231;-84
2024/01/27 02:25:36;;;;;;;1.00;1.00;;;;;;;;;;5034165;28;20161;-83
2024/01/27 02:28:05;;;;;;;0.80;0.80;;;;;;;;;;5018979;28;20200;-83
2024/01/27 02:30:31;;;;;;;1.00;1.00;;;;;;;;;;5019632;28;20204;-83
2024/01/27 02:32:58;;;;;;;0.80;0.80;;;;;;;;;;5018782;28;20213;-84
2024/01/27 02:35:24;;;;;;;0.90;0.90;;;;;;;;;;5018555;28;20181;-84
2024/01/27 02:37:50;;;;;;;0.90;0.90;;;;;;;;;;5011445;28;20197;-85
2024/01/27 02:40:16;;;;;;;0.90;0.90;;;;;;;;;;5006231;28;20193;-85
2024/01/27 02:42:43;;;;;;;0.80;0.80;;;;;;;;;;4997927;28;20552;-86
2024/01/27 02:45:09;;;;;;;0.80;0.80;;;;;;;;;;4997869;28;20208;-85
2024/01/27 02:47:35;;;;;;;0.80;0.80;;;;;;;;;;4997509;28;20193;-85
2024/01/27 02:50:01;;;;;;;0.90;0.90;;;;;;;;;;4998122;28;20268;-85
2024/01/27 02:52:27;;;;;;;0.90;0.90;;;;;;;;;;4997989;28;20197;-85
2024/01/27 02:54:53;;;;;;;0.80;0.80;;;;;;;;;;4998981;28;20173;-86
2024/01/27 02:57:20;;;;;;;0.80;0.80;;;;;;;;;;4998632;28;20280;-85
2024/01/27 02:59:46;;;;;;;0.80;0.80;;;;;;;;;;4998353;28;20188;-85
2024/01/27 03:02:12;;;;;;;0.80;0.80;;;;;;;;;;4999104;28;20185;-85
2024/01/27 03:04:38;;;;;;;0.90;0.90;;;;;;;;;;4997256;28;20173;-85
2024/01/27 03:07:04;;;;;;;0.80;0.80;;;;;;;;;;4997460;28;20303;-86
2024/01/27 03:09:31;;;;;;;0.90;0.90;;;;;;;;;;4998214;28;20207;-86
2024/01/27 03:11:57;;;;;;;0.83;0.83;;;;;;;;;;4998133;28;20197;-85
2024/01/27 03:14:23;;;;;;;0.87;0.87;;;;;;;;;;4999036;28;20177;-85
2024/01/27 03:16:49;;;;;;;0.80;0.80;;;;;;;;;;4997548;28;20201;-85
2024/01/27 03:19:14;;;;;;;0.90;0.90;;;;;;;;;;4998087;28;20191;-85
2024/01/27 03:21:40;;;;;;;0.87;0.87;;;;;;;;;;4998262;28;20177;-86
2024/01/27 03:24:08;;;;;;;0.90;0.90;;;;;;;;;;4997740;28;20187;-85
2024/01/27 03:26:34;;;;;;;0.80;0.80;;;;;;;;;;4997014;28;20579;-86
2024/01/27 03:29:02;;;;;;;0.80;0.80;;;;;;;;;;4998277;28;20655;-84
2024/01/27 03:31:34;;;;;;;0.90;0.90;;;;;;;;;;4998672;28;20767;-85
2024/01/27 03:34:00;;;;;;;0.90;0.90;;;;;;;;;;5010363;28;20231;-84
2024/01/27 03:36:26;;;;;;;0.77;0.77;;;;;;;;;;5017985;28;20177;-83
2024/01/27 03:38:52;;;;;;;0.87;0.87;;;;;;;;;;5018551;28;20169;-84
2024/01/27 03:41:18;;;;;;;0.80;0.80;;;;;;;;;;5018402;28;20177;-84
2024/01/27 03:43:44;;;;;;;0.80;0.80;;;;;;;;;;5011222;28;20184;-86
2024/01/27 03:46:10;;;;;;;0.80;0.80;;;;;;;;;;5007543;28;20291;-86
2024/01/27 03:48:37;;;;;;;0.83;0.83;;;;;;;;;;5007454;28;20185;-85
2024/01/27 03:51:04;;;;;;;0.80;0.80;;;;;;;;;;5006588;28;20180;-84
2024/01/27 03:53:30;;;;;;;0.90;0.90;;;;;;;;;;5004422;28;20231;-87
2024/01/27 03:55:59;;;;;;;1.00;1.00;;;;;;;;;;5005164;28;20177;-85
2024/01/27 03:58:25;;;;;;;0.97;0.97;;;;;;;;;;5003035;28;20733;-86
2024/01/27 04:00:51;;;;;;;0.80;0.80;;;;;;;;;;5002364;28;20208;-86
2024/01/27 04:03:17;;;;;;;0.90;0.90;;;;;;;;;;5003553;28;20182;-86
2024/01/27 04:05:43;;;;;;;0.80;0.80;;;;;;;;;;5000985;28;20181;-85
2024/01/27 04:08:09;;;;;;;0.90;0.90;;;;;;;;;;5000181;28;20224;-85
2024/01/27 04:10:36;;;;;;;0.90;0.90;;;;;;;;;;4995551;28;20691;-86
2024/01/27 04:13:02;;;;;;;0.90;0.90;;;;;;;;;;4994623;28;20266;-85
2024/01/27 04:15:28;;;;;;;0.90;0.90;;;;;;;;;;4995797;28;20264;-85
2024/01/27 04:17:55;;;;;;;0.90;0.90;;;;;;;;;;4993852;28;20211;-86
2024/01/27 04:20:21;;;;;;;0.80;0.80;;;;;;;;;;4995573;28;20188;-85
2024/01/27 04:22:47;;;;;;;0.80;0.80;;;;;;;;;;4994008;28;20268;-86
2024/01/27 04:25:13;;;;;;;0.80;0.80;;;;;;;;;;4994983;28;20183;-85
2024/01/27 04:27:39;;;;;;;0.70;0.70;;;;;;;;;;4994644;28;20572;-86
2024/01/27 04:30:09;;;;;;;0.80;0.80;;;;;;;;;;4995588;28;20177;-85
2024/01/27 04:32:36;;;;;;;0.80;0.80;;;;;;;;;;4994766;28;20204;-85
2024/01/27 04:35:03;;;;;;;0.90;0.90;;;;;;;;;;4994109;28;20177;-85
2024/01/27 04:37:29;;;;;;;0.80;0.80;;;;;;;;;;4994619;28;20745;-85
2024/01/27 04:39:55;;;;;;;0.90;0.90;;;;;;;;;;4994060;28;20181;-86
2024/01/27 04:42:21;;;;;;;0.80;0.80;;;;;;;;;;4994221;28;20187;-85
2024/01/27 04:44:47;;;;;;;1.00;1.00;;;;;;;;;;4993826;28;20173;-86
2024/01/27 04:47:13;;;;;;;0.97;0.97;;;;;;;;;;4992994;28;20200;-86
2024/01/27 04:49:39;;;;;;;1.00;1.00;;;;;;;;;;4992219;28;20205;-85
2024/01/27 04:52:05;;;;;;;0.90;0.90;;;;;;;;;;4994305;28;20177;-85
2024/01/27 04:54:31;;;;;;;0.80;0.80;;;;;;;;;;4994301;28;20174;-86
2024/01/27 04:56:57;;;;;;;0.90;0.90;;;;;;;;;;4993162;28;20267;-86
2024/01/27 04:59:24;;;;;;;0.90;0.90;;;;;;;;;;4994694;28;20185;-86
2024/01/27 05:01:51;;;;;;;0.80;0.80;;;;;;;;;;5000533;28;20196;-84
2024/01/27 05:04:16;;;;;;;0.90;0.90;;;;;;;;;;5013383;28;20324;-86
2024/01/27 05:06:46;;;;;;;0.90;0.90;;;;;;;;;;4998250;28;20224;-86
2024/01/27 05:09:12;;;;;;;0.97;0.97;;;;;;;;;;4998954;28;20196;-86
2024/01/27 05:11:38;;;;;;;0.90;0.90;;;;;;;;;;4998317;28;20195;-86
2024/01/27 05:14:04;;;;;;;0.97;0.97;;;;;;;;;;4998950;28;20681;-86
2024/01/27 05:16:32;;;;;;;0.90;0.90;;;;;;;;;;4998038;28;20213;-85
2024/01/27 05:18:58;;;;;;;0.80;0.80;;;;;;;;;;4998406;28;20185;-86
2024/01/27 05:21:24;;;;;;;0.80;0.80;;;;;;;;;;4997015;28;20205;-85
2024/01/27 05:23:49;;;;;;;0.90;0.90;;;;;;;;;;4997346;28;20495;-85
2024/01/27 05:26:15;;;;;;;0.80;0.80;;;;;;;;;;4997859;28;20219;-86
2024/01/27 05:28:41;;;;;;;0.90;0.90;;;;;;;;;;4998619;28;20267;-85
2024/01/27 05:31:08;;;;;;;0.90;0.90;;;;;;;;;;4998085;28;20177;-86
2024/01/27 05:33:34;;;;;;;0.97;0.97;;;;;;;;;;4997786;28;20212;-85
2024/01/27 05:36:00;;;;;;;1.00;1.00;;;;;;;;;;4997693;28;20204;-86
2024/01/27 05:38:28;;;;;;;1.00;1.00;;;;;;;;;;4996479;28;20235;-86
2024/01/27 05:40:54;;;;;;;0.90;0.90;;;;;;;;;;4996238;28;20232;-86
2024/01/27 05:43:20;;;;;;;0.97;0.97;;;;;;;;;;4997182;28;20188;-86
2024/01/27 05:45:46;;;;;;;0.90;0.90;;;;;;;;;;4997119;28;20177;-86
2024/01/27 05:48:12;;;;;;;0.90;0.90;;;;;;;;;;4996925;28;20189;-86
2024/01/27 05:50:40;;;;;;;0.90;0.90;;;;;;;;;;4997347;28;20181;-86
2024/01/27 05:53:06;;;;;;;0.87;0.87;;;;;;;;;;4995718;28;20252;-85
2024/01/27 05:55:33;;;;;;;0.90;0.90;;;;;;;;;;4996764;28;20174;-85
2024/01/27 05:57:59;;;;;;;0.80;0.80;;;;;;;;;;4995297;28;20207;-85
2024/01/27 06:00:25;;;;;;;0.80;0.80;;;;;;;;;;4997652;28;20177;-85
2024/01/27 06:02:52;;;;;;;0.90;0.90;;;;;;;;;;4998897;28;20241;-86
2024/01/27 06:05:17;;;;;;;0.90;0.90;;;;;;;;;;5014567;28;20196;-84
2024/01/27 06:07:46;;;;;;;1.00;1.00;;;;;;;;;;5019751;28;20196;-85
2024/01/27 06:10:12;;;;;;;0.90;0.90;;;;;;;;;;5009055;28;20208;-85
2024/01/27 06:12:39;;;;;;;0.90;0.90;;;;;;;;;;4995519;28;20200;-86
2024/01/27 06:15:06;;;;;;;0.90;0.90;;;;;;;;;;4996713;28;20251;-86
2024/01/27 06:17:32;;;;;;;0.90;0.90;;;;;;;;;;4997124;28;20316;-86
2024/01/27 06:19:57;;;;;;;1.00;1.00;;;;;;;;;;4996149;28;20216;-86
2024/01/27 06:22:23;;;;;;;1.00;1.00;;;;;;;;;;5007658;28;20308;-85
2024/01/27 06:24:51;;;;;;;0.80;0.80;;;;;;;;;;5018981;28;20178;-85
2024/01/27 06:27:17;;;;;;;0.90;0.90;;;;;;;;;;5018281;28;20204;-85
2024/01/27 06:29:43;;;;;;;0.90;0.90;;;;;;;;;;5018683;28;20643;-86
2024/01/27 06:32:10;;;;;;;0.90;0.90;;;;;;;;;;5008831;28;20200;-87
2024/01/27 06:34:35;;;;;;;0.90;0.90;;;;;;;;;;5008550;28;20212;-87
2024/01/27 06:37:01;;;;;;;0.90;0.90;;;;;;;;;;5007726;28;20205;-88
2024/01/27 06:39:29;;;;;;;0.90;0.90;;;;;;;;;;4999203;28;20204;-86
2024/01/27 06:41:55;;;;;;;0.90;0.90;;;;;;;;;;4996448;28;20200;-86
2024/01/27 06:44:21;;;;;;;0.90;0.90;;;;;;;;;;4996358;28;20263;-86
2024/01/27 06:46:49;;;;;;;0.83;0.83;;;;;;;;;;5001791;28;20193;-85
2024/01/27 06:49:16;;;;;;;0.90;0.90;;;;;;;;;;5013247;28;20192;-86
2024/01/27 06:51:42;;;;;;;0.80;0.80;;;;;;;;;;5013253;28;20746;-85
2024/01/27 06:54:08;;;;;;;0.90;0.90;;;;;;;;;;5014219;28;20236;-84
2024/01/27 06:56:34;;;;;;;1.00;1.00;;;;;;;;;;5018681;28;20296;-85
2024/01/27 06:59:00;;;;;;;0.80;0.80;;;;;;;;;;5018954;28;20245;-86
2024/01/27 07:01:26;;;;;;;0.90;0.90;;;;;;;;;;5019071;28;20172;-85
2024/01/27 07:03:52;;;;;;;0.90;0.90;;;;;;;;;;5019037;28;20165;-84
2024/01/27 07:06:18;;;;;;;0.93;0.93;;;;;;;;;;5017690;28;20213;-85
2024/01/27 07:08:44;;;;;;;0.90;0.90;;;;;;;;;;5018812;28;20188;-85
2024/01/27 07:11:10;;;;;;;0.80;0.80;;;;;;;;;;5019051;28;20161;-84
2024/01/27 07:13:36;;;;;;;0.80;0.80;;;;;;;;;;5017989;28;20196;-84
2024/01/27 07:16:02;;;;;;;0.90;0.90;;;;;;;;;;5014389;28;20173;-85
2024/01/27 07:18:30;;;;;;;0.80;0.80;;;;;;;;;;5007262;28;20231;-86
2024/01/27 07:21:01;;;;;;;0.90;0.90;;;;;;;;;;5006907;28;20197;-88
2024/01/27 07:23:26;;;;;;;1.03;1.03;;;;;;;;;;5003860;28;20192;-85
2024/01/27 07:25:52;;;;;;;0.90;0.90;;;;;;;;;;5003284;28;20173;-87
2024/01/27 07:28:18;;;;;;;0.90;0.90;;;;;;;;;;5002929;28;20650;-85
2024/01/27 07:30:45;;;;;;;0.70;0.70;;;;;;;;;;5000206;28;20609;-87
2024/01/27 07:33:11;;;;;;;0.90;0.90;;;;;;;;;;4995634;28;20220;-86
2024/01/27 07:35:37;;;;;;;0.80;0.80;;;;;;;;;;4998604;28;20201;-88
2024/01/27 07:38:03;;;;;;;0.83;0.83;;;;;;;;;;5002652;28;20818;-87
2024/01/27 07:40:29;;;;;;;0.70;0.70;;;;;;;;;;4995268;28;20188;-89
2024/01/27 07:42:55;;;;;;;0.70;0.70;;;;;;;;;;4995464;28;20169;-91
2024/01/27 07:45:21;;;;;;;0.80;0.80;;;;;;;;;;4999230;28;20244;-90
2024/01/27 07:47:47;;;;;;;0.60;0.60;;;;;;;;;;4996485;28;20201;-87
2024/01/27 07:50:13;;;;;;;0.70;0.70;;;;;;;;;;4996526;28;20188;-87
2024/01/27 07:52:39;;;;;;;0.70;0.70;;;;;;;;;;4996504;28;20201;-89
2024/01/27 07:55:06;;;;;;;0.60;0.60;;;;;;;;;;5012185;28;20177;-83
2024/01/27 07:57:32;;;;;;;0.60;0.60;;;;;;;;;;5015870;28;20257;-86
2024/01/27 07:59:58;;;;;;;0.60;0.60;;;;;;;;;;5018021;28;20397;-87
2024/01/27 08:02:26;;;;;;;0.50;0.50;;;;;;;;;;5017358;28;20563;-85
2024/01/27 08:04:52;;;;;;;0.40;0.40;;;;;;;;;;5018776;28;20177;-88
2024/01/27 08:07:19;;;;;;;0.50;0.50;;;;;;;;;;5016582;28;20197;-86
2024/01/27 08:09:45;;;;;;;0.50;0.50;;;;;;;;;;4994339;28;20208;-87
2024/01/27 08:12:11;;;;;;;0.40;0.40;;;;;;;;;;4993131;28;20183;-87
2024/01/27 08:14:37;;;;;;;0.40;0.40;;;;;;;;;;4994416;28;20248;-87
2024/01/27 08:17:06;;;;;;;0.40;0.40;;;;;;;;;;4993884;28;20225;-87
2024/01/27 08:19:32;;;;;;;0.50;0.50;;;;;;;;;;4993647;28;20200;-86
2024/01/27 08:21:58;;;;;;;0.40;0.40;;;;;;;;;;4992435;28;20200;-87
2024/01/27 08:24:24;;;;;;;0.40;0.40;;;;;;;;;;4993330;28;20191;-86
2024/01/27 08:26:51;;;;;;;0.40;0.40;;;;;;;;;;4993059;28;20189;-86
2024/01/27 08:29:17;;;;;;;0.50;0.50;;;;;;;;;;4993879;28;20177;-86
2024/01/27 08:31:43;;;;;;;0.40;0.40;;;;;;;;;;4993958;28;20678;-85
2024/01/27 08:34:12;;;;;;;0.30;0.30;;;;;;;;;;4992407;28;20228;-86
2024/01/27 08:36:38;;;;;;;0.40;0.40;;;;;;;;;;4995029;28;20296;-87
2024/01/27 08:39:07;;;;;;;0.40;0.40;;;;;;;;;;4994150;28;20205;-88
2024/01/27 08:41:33;;;;;;;0.37;0.37;;;;;;;;;;4994210;28;20666;-87
2024/01/27 08:43:59;;;;;;;0.30;0.30;;;;;;;;;;4995037;28;20189;-85
2024/01/27 08:46:24;;;;;;;0.40;0.40;;;;;;;;;;4993537;28;20193;-87
2024/01/27 08:48:50;;;;;;;0.30;0.30;;;;;;;;;;4993171;28;20177;-88
2024/01/27 08:51:17;;;;;;;0.30;0.30;;;;;;;;;;4993137;28;20181;-89
2024/01/27 08:53:50;;;;;;;0.30;0.30;;;;;;;;;;4993081;28;20208;-90
2024/01/27 08:56:20;;;;;;;0.33;0.33;;;;;;;;;;4992809;28;20552;-88
2024/01/27 08:58:49;;;;;;;0.30;0.30;;;;;;;;;;4993328;28;20176;-86
2024/01/27 09:01:19;;;;;;;0.30;0.30;;;;;;;;;;4992952;28;20173;-89
2024/01/27 09:03:46;;;;;;;0.47;0.47;;;;;;;;;;4992986;28;20188;-87
2024/01/27 09:06:12;;;;;;;0.40;0.40;;;;;;;;;;4991876;28;20291;-89
2024/01/27 09:08:38;;;;;;;0.30;0.30;;;;;;;;;;4993509;28;20255;-88
2024/01/27 09:11:04;;;;;;;0.43;0.43;;;;;;;;;;4992916;28;20236;-88
2024/01/27 09:13:30;;;;;;;0.40;0.40;;;;;;;;;;4992445;28;20266;-88
2024/01/27 09:15:59;;;;;;;0.50;0.50;;;;;;;;;;4992927;28;20260;-87
2024/01/27 09:18:26;;;;;;;0.40;0.40;;;;;;;;;;4992203;28;20405;-88
2024/01/27 09:20:52;;;;;;;0.50;0.50;;;;;;;;;;5002956;28;20177;-90
2024/01/27 09:23:18;;;;;;;0.40;0.40;;;;;;;;;;5003929;28;20252;-86
2024/01/27 09:25:45;;;;;;;0.40;0.40;;;;;;;;;;4993736;28;20180;-88
2024/01/27 09:28:12;;;;;;;0.40;0.40;;;;;;;;;;4993460;28;20371;-86
2024/01/27 09:30:38;;;;;;;0.40;0.40;;;;;;;;;;5006725;28;20188;-88
2024/01/27 09:33:04;;;;;;;0.43;0.43;;;;;;;;;;4992717;28;20228;-84
2024/01/27 09:35:30;;;;;;;0.52;0.52;;;;;;;;;;4992802;28;20927;-89
2024/01/27 09:37:56;;;;;;;0.40;0.40;;;;;;;;;;4992315;28;20224;-84
2024/01/27 09:40:22;;;;;;;0.40;0.40;;;;;;;;;;4990973;28;20197;-86
2024/01/27 09:42:52;;;;;;;0.50;0.50;;;;;;;;;;4992606;28;20682;-86
2024/01/27 09:45:20;;;;;;;0.30;0.30;;;;;;;;;;4991924;28;20683;-86
2024/01/27 09:47:46;;;;;;;0.40;0.40;;;;;;;;;;4991717;28;20208;-89
2024/01/27 09:50:12;;;;;;;0.40;0.40;;;;;;;;;;4991732;28;20260;-87
2024/01/27 09:52:38;;;;;;;0.43;0.43;;;;;;;;;;4996303;28;20335;-87
2024/01/27 09:55:04;;;;;;;0.40;0.40;;;;;;;;;;4995772;28;20675;-89
2024/01/27 09:57:31;;;;;;;0.50;0.50;;;;;;;;;;4994083;28;20280;-91
2024/01/27 09:59:57;;;;;;;0.47;0.47;;;;;;;;;;4995706;28;20185;-88
2024/01/27 10:02:24;;;;;;;0.47;0.47;;;;;;;;;;4996648;28;20272;-89
2024/01/27 10:04:51;;;;;;;0.50;0.50;;;;;;;;;;4996153;28;20184;-90
2024/01/27 10:07:17;;;;;;;0.37;0.37;;;;;;;;;;4995550;28;20201;-88
2024/01/27 10:09:43;;;;;;;0.40;0.40;;;;;;;;;;4999310;28;20300;-88
2024/01/27 10:12:10;;;;;;;0.30;0.30;;;;;;;;;;5005519;28;20690;-89
2024/01/27 10:14:44;;;;;;;0.50;0.50;;;;;;;;;;4996348;28;20177;-88
2024/01/27 10:17:13;;;;;;;0.50;0.50;;;;;;;;;;4993986;28;20511;-89
2024/01/27 10:19:39;;;;;;;0.50;0.50;;;;;;;;;;4994637;28;20301;-88
2024/01/27 10:22:05;;;;;;;0.40;0.40;;;;;;;;;;4995663;28;20216;-89
2024/01/27 10:24:35;;;;;;;0.70;0.70;;;;;;;;;;4994105;28;20260;-89
2024/01/27 10:27:04;;;;;;;0.50;0.50;;;;;;;;;;4993614;28;20321;-89
2024/01/27 10:29:31;;;;;;;0.50;0.50;;;;;;;;;;4994875;28;20216;-88
2024/01/27 10:32:07;;;;;;;0.40;0.40;;;;;;;;;;4995392;28;20242;-89
2024/01/27 10:34:36;;;;;;;0.40;0.40;;;;;;;;;;4996312;28;20189;-88
2024/01/27 10:37:02;;;;;;;0.47;0.47;;;;;;;;;;4995547;28;20211;-86
2024/01/27 10:39:28;;;;;;;0.47;0.47;;;;;;;;;;4995796;28;20272;-88
2024/01/27 10:41:54;;;;;;;0.50;0.50;;;;;;;;;;4995703;28;20186;-89
2024/01/27 10:44:20;;;;;;;0.40;0.40;;;;;;;;;;4994096;28;20209;-88
2024/01/27 10:46:48;;;;;;;0.50;0.50;;;;;;;;;;4995277;28;20558;-89
2024/01/27 10:49:15;;;;;;;0.50;0.50;;;;;;;;;;4995375;28;20552;-87
2024/01/27 10:51:43;;;;;;;0.40;0.40;;;;;;;;;;4995100;28;20204;-89
2024/01/27 10:54:13;;;;;;;0.40;0.40;;;;;;;;;;4997791;28;20300;-88
2024/01/27 10:56:40;;;;;;;0.30;0.30;;;;;;;;;;5002029;28;20239;-90
2024/01/27 10:59:09;;;;;;;0.47;0.47;;;;;;;;;;5019006;28;20237;-87
2024/01/27 11:01:37;;;;;;;0.30;0.30;;;;;;;;;;5018403;28;20168;-88
2024/01/27 11:04:04;;;;;;;0.40;0.40;;;;;;;;;;5018892;28;20165;-87
2024/01/27 11:06:30;;;;;;;0.40;0.40;;;;;;;;;;5014352;28;20734;-88
2024/01/27 11:08:56;;;;;;;0.47;0.47;;;;;;;;;;4995401;28;20670;-88
2024/01/27 11:11:22;;;;;;;0.30;0.30;;;;;;;;;;4994882;28;20185;-87
2024/01/27 11:13:50;;;;;;;0.30;0.30;;;;;;;;;;4997004;28;20259;-88
2024/01/27 11:16:17;;;;;;;0.30;0.30;;;;;;;;;;4995099;28;20244;-88
2024/01/27 11:18:43;;;;;;;0.40;0.40;;;;;;;;;;4994519;28;20261;-88
2024/01/27 11:21:14;;;;;;;0.30;0.30;;;;;;;;;;4996171;28;20188;-87
2024/01/27 11:23:40;;;;;;;0.40;0.40;;;;;;;;;;4997089;28;20170;-88
2024/01/27 11:26:07;;;;;;;0.30;0.30;;;;;;;;;;4996480;28;20201;-88
2024/01/27 11:28:33;;;;;;;0.30;0.30;;;;;;;;;;4996553;28;20181;-87
2024/01/27 11:30:59;;;;;;;0.30;0.30;;;;;;;;;;4996595;28;20300;-87
2024/01/27 11:33:25;;;;;;;0.30;0.30;;;;;;;;;;4996015;28;20228;-88
2024/01/27 11:36:04;;;;;;;0.30;0.30;;;;;;;;;;4994767;28;20173;-88
2024/01/27 11:38:33;;;;;;;0.37;0.37;;;;;;;;;;4996611;28;20198;-88
2024/01/27 11:41:02;;;;;;;0.40;0.40;;;;;;;;;;4995893;28;20268;-88
2024/01/27 11:43:28;;;;;;;0.40;0.40;;;;;;;;;;4996126;28;20599;-86
2024/01/27 11:46:01;;;;;;;0.33;0.33;;;;;;;;;;4999109;28;20181;-88
2024/01/27 11:48:31;;;;;;;0.40;0.40;;;;;;;;;;4997580;28;20196;-87
2024/01/27 11:51:07;;;;;;;0.50;0.50;;;;;;;;;;4996521;28;20273;-88
2024/01/27 11:53:33;;;;;;;0.60;0.60;;;;;;;;;;4995994;28;20208;-88
2024/01/27 11:56:01;;;;;;;0.43;0.43;;;;;;;;;;5001198;28;20245;-89
2024/01/27 11:58:27;;;;;;;0.40;0.40;;;;;;;;;;5005149;28;20191;-89
2024/01/27 12:00:53;;;;;;;0.40;0.40;;;;;;;;;;4995271;28;20173;-87
2024/01/27 12:03:19;;;;;;;0.50;0.50;;;;;;;;;;4997127;28;20185;-87
2024/01/27 12:05:45;;;;;;;0.40;0.40;;;;;;;;;;4995150;28;20177;-87
2024/01/27 12:08:11;;;;;;;0.50;0.50;;;;;;;;;;4994773;28;20180;-87
2024/01/27 12:10:37;;;;;;;0.50;0.50;;;;;;;;;;4994850;28;20797;-87
2024/01/27 12:13:03;;;;;;;0.40;0.40;;;;;;;;;;4994737;28;20216;-86
2024/01/27 12:15:29;;;;;;;0.47;0.47;;;;;;;;;;4994740;28;20199;-84
2024/01/27 12:17:58;;;;;;;0.50;0.50;;;;;;;;;;4996489;28;20261;-86
2024/01/27 12:20:26;;;;;;;0.40;0.40;;;;;;;;;;4995521;28;20185;-89
2024/01/27 12:23:03;;;;;;;0.40;0.40;;;;;;;;;;4996093;28;20671;-88
2024/01/27 12:25:29;;;;;;;0.40;0.40;;;;;;;;;;4998737;28;20802;-85
2024/01/27 12:28:00;;;;;;;0.43;0.43;;;;;;;;;;4996295;28;20219;-88
2024/01/27 12:30:26;;;;;;;0.40;0.40;;;;;;;;;;4995668;28;20184;-87
2024/01/27 12:32:52;;;;;;;0.40;0.40;;;;;;;;;;4994323;28;20296;-88
2024/01/27 12:35:19;;;;;;;0.40;0.40;;;;;;;;;;4993979;28;20196;-87
2024/01/27 12:37:45;;;;;;;0.43;0.43;;;;;;;;;;4993701;28;20251;-89
2024/01/27 12:40:17;;;;;;;0.50;0.50;;;;;;;;;;4988389;28;20279;-88
2024/01/27 12:42:43;;;;;;;0.43;0.43;;;;;;;;;;4994206;28;20239;-87
2024/01/27 12:45:09;;;;;;;0.40;0.40;;;;;;;;;;4994040;28;20185;-86
2024/01/27 12:47:35;;;;;;;0.40;0.40;;;;;;;;;;4993724;28;20193;-87
2024/01/27 12:50:01;;;;;;;0.40;0.40;;;;;;;;;;4994321;28;20335;-86
2024/01/27 12:52:27;;;;;;;0.30;0.30;;;;;;;;;;5007939;28;20248;-90
2024/01/27 12:54:53;;;;;;;0.40;0.40;;;;;;;;;;4994602;28;20274;-89
2024/01/27 12:57:19;;;;;;;0.30;0.30;;;;;;;;;;4993307;28;20208;-88
2024/01/27 12:59:45;;;;;;;0.40;0.40;;;;;;;;;;4993656;28;20177;-87
2024/01/27 13:02:11;;;;;;;0.40;0.40;;;;;;;;;;4993624;28;20181;-86
2024/01/27 13:04:39;;;;;;;0.40;0.40;;;;;;;;;;4993946;28;20487;-88
2024/01/27 13:07:05;;;;;;;0.33;0.33;;;;;;;;;;4993029;28;20201;-85
2024/01/27 13:09:31;;;;;;;0.30;0.30;;;;;;;;;;4993257;28;20201;-87
2024/01/27 13:11:58;;;;;;;0.40;0.40;;;;;;;;;;4992017;28;20181;-86
2024/01/27 13:14:24;;;;;;;0.50;0.50;;;;;;;;;;4989220;28;20263;-85
2024/01/27 13:16:51;;;;;;;0.30;0.30;;;;;;;;;;4993136;28;20197;-86
2024/01/27 13:19:17;;;;;;;0.30;0.30;;;;;;;;;;4993133;28;20185;-86
2024/01/27 13:21:43;;;;;;;0.40;0.40;;;;;;;;;;4994201;28;20230;-86
2024/01/27 13:24:09;;;;;;;0.33;0.33;;;;;;;;;;4994891;28;20777;-85
2024/01/27 13:26:38;;;;;;;0.40;0.40;;;;;;;;;;4996767;28;20295;-84
2024/01/27 13:29:08;;;;;;;0.40;0.40;;;;;;;;;;4998281;28;20174;-86
2024/01/27 13:31:34;;;;;;;0.40;0.40;;;;;;;;;;4998927;28;20188;-87
2024/01/27 13:34:01;;;;;;;0.40;0.40;;;;;;;;;;5002254;28;20200;-86
2024/01/27 13:36:27;;;;;;;0.30;0.30;;;;;;;;;;4997815;28;20201;-86
2024/01/27 13:38:53;;;;;;;0.47;0.47;;;;;;;;;;5001169;28;20667;-85
2024/01/27 13:41:19;;;;;;;0.30;0.30;;;;;;;;;;4999464;28;20189;-85
2024/01/27 13:43:46;;;;;;;0.30;0.30;;;;;;;;;;4998074;28;20177;-85
2024/01/27 13:46:12;;;;;;;0.50;0.50;;;;;;;;;;4997040;28;20201;-86
2024/01/27 13:48:38;;;;;;;0.40;0.40;;;;;;;;;;5008451;28;20526;-92
2024/01/27 13:51:04;;;;;;;0.30;0.30;;;;;;;;;;4997261;28;20196;-90
2024/01/27 13:53:30;;;;;;;0.40;0.40;;;;;;;;;;4997463;28;20204;-88
2024/01/27 13:55:56;;;;;;;0.33;0.33;;;;;;;;;;4998304;28;20280;-91
2024/01/27 13:58:22;;;;;;;0.50;0.50;;;;;;;;;;5018596;28;20491;-90
2024/01/27 14:00:49;;;;;;;0.40;0.40;;;;;;;;;;5000454;28;20192;-89
2024/01/27 14:03:15;;;;;;;0.30;0.30;;;;;;;;;;4999680;28;20200;-90
2024/01/27 14:05:42;;;;;;;0.40;0.40;;;;;;;;;;4999960;28;20181;-87
2024/01/27 14:08:10;;;;;;;0.30;0.30;;;;;;;;;;4999595;28;20200;-89
2024/01/27 14:10:36;;;;;;;0.30;0.30;;;;;;;;;;4998426;28;20569;-89
2024/01/27 14:13:08;;;;;;;0.30;0.30;;;;;;;;;;4999633;28;20257;-89
2024/01/27 14:15:35;;;;;;;0.40;0.40;;;;;;;;;;4995949;28;20343;-86
2024/01/27 14:18:01;;;;;;;0.30;0.30;;;;;;;;;;4996917;28;20243;-89
2024/01/27 14:20:29;;;;;;;0.40;0.40;;;;;;;;;;4997924;28;20170;-88
2024/01/27 14:22:55;;;;;;;0.33;0.33;;;;;;;;;;4997954;28;20204;-89
2024/01/27 14:25:21;;;;;;;0.47;0.47;;;;;;;;;;4998741;28;20177;-87
2024/01/27 14:27:50;;;;;;;0.47;0.47;;;;;;;;;;4996125;28;20205;-87
2024/01/27 14:30:16;;;;;;;0.60;0.60;;;;;;;;;;4999097;28;20188;-87
2024/01/27 14:32:44;;;;;;;0.50;0.50;;;;;;;;;;5015798;28;20200;-91
2024/01/27 14:35:10;;;;;;;0.60;0.60;;;;;;;;;;5018704;28;20176;-90
2024/01/27 14:37:37;;;;;;;0.30;0.30;;;;;;;;;;5005253;28;20201;-89
2024/01/27 14:40:04;;;;;;;0.50;0.50;;;;;;;;;;4998113;28;20347;-89